createdAt,value
2022-12-31T00:00:35.357Z,11.41
2022-12-31T00:01:35.320Z,11.44
2022-12-31T00:02:35.319Z,11.44
2022-12-31T00:03:35.314Z,11.41
2022-12-31T00:04:35.248Z,11.39
2022-12-31T00:05:35.202Z,11.43
2022-12-31T00:06:35.223Z,11.47
2022-12-31T00:08:07.497Z,11.46
2022-12-31T00:09:08.488Z,11.46
2022-12-31T00:10:08.374Z,11.49
2022-12-31T00:11:08.356Z,11.44
2022-12-31T00:12:08.333Z,11.43
2022-12-31T00:13:08.314Z,11.49
2022-12-31T00:14:08.315Z,11.52
2022-12-31T00:15:08.123Z,11.43
2022-12-31T00:16:12.050Z,11.47
2022-12-31T00:17:08.300Z,11.47
2022-12-31T00:18:08.349Z,11.49
2022-12-31T00:19:08.218Z,11.52
2022-12-31T00:20:08.318Z,11.52
2022-12-31T00:21:08.294Z,11.53
2022-12-31T00:22:08.279Z,11.49
2022-12-31T00:23:08.257Z,11.53
2022-12-31T00:24:08.128Z,11.52
2022-12-31T00:25:08.242Z,11.52
2022-12-31T00:26:08.212Z,11.47
2022-12-31T00:27:08.182Z,11.54
2022-12-31T00:28:08.165Z,11.54
2022-12-31T00:29:07.988Z,11.49
2022-12-31T00:30:08.129Z,11.52
2022-12-31T00:31:08.389Z,11.57
2022-12-31T00:32:08.089Z,11.52
2022-12-31T00:33:08.071Z,11.52
2022-12-31T00:34:08.057Z,11.49
2022-12-31T00:35:08.059Z,11.49
2022-12-31T00:36:08.186Z,11.49
2022-12-31T00:37:08.174Z,11.47
2022-12-31T00:38:07.986Z,11.46
2022-12-31T00:39:08.128Z,11.43
2022-12-31T00:40:08.107Z,11.46
2022-12-31T00:41:07.967Z,11.43
2022-12-31T00:42:08.111Z,11.46
2022-12-31T00:43:07.958Z,11.39
2022-12-31T00:44:07.941Z,11.46
2022-12-31T00:45:07.938Z,11.46
2022-12-31T00:46:07.987Z,11.43
2022-12-31T00:47:08.085Z,11.49
2022-12-31T00:48:07.911Z,11.46
2022-12-31T00:49:08.021Z,11.46
2022-12-31T00:50:08.000Z,11.46
2022-12-31T00:51:07.963Z,11.41
2022-12-31T00:52:08.012Z,11.47
2022-12-31T00:53:07.918Z,11.47
2022-12-31T00:54:07.974Z,11.47
2022-12-31T00:55:07.932Z,11.49
2022-12-31T00:56:07.909Z,11.56
2022-12-31T00:57:07.954Z,11.54
2022-12-31T00:58:07.934Z,11.53
2022-12-31T00:59:07.920Z,11.64
2022-12-31T01:00:07.921Z,11.61
2022-12-31T01:01:07.951Z,11.61
2022-12-31T01:02:08.039Z,11.56
2022-12-31T01:03:07.818Z,11.59
2022-12-31T01:04:07.883Z,11.59
2022-12-31T01:05:07.857Z,11.54
2022-12-31T01:06:07.859Z,11.57
2022-12-31T01:07:07.830Z,11.52
2022-12-31T01:08:07.874Z,11.52
2022-12-31T01:09:07.766Z,11.50
2022-12-31T01:10:07.801Z,11.52
2022-12-31T01:11:07.779Z,11.53
2022-12-31T01:12:07.740Z,11.53
2022-12-31T01:13:07.800Z,11.54
2022-12-31T01:14:07.855Z,11.56
2022-12-31T01:15:07.751Z,11.57
2022-12-31T01:16:07.784Z,11.59
2022-12-31T01:17:07.738Z,11.59
2022-12-31T01:18:07.520Z,11.59
2022-12-31T01:19:07.744Z,11.57
2022-12-31T01:20:07.734Z,11.57
2022-12-31T01:21:07.635Z,11.61
2022-12-31T01:22:07.694Z,11.62
2022-12-31T01:23:07.684Z,11.61
2022-12-31T01:24:07.621Z,11.62
2022-12-31T01:25:07.741Z,11.62
2022-12-31T01:26:07.626Z,11.65
2022-12-31T01:27:07.604Z,11.70
2022-12-31T01:28:07.575Z,11.71
2022-12-31T01:29:07.560Z,11.72
2022-12-31T01:30:07.700Z,11.71
2022-12-31T01:31:07.601Z,11.71
2022-12-31T01:32:07.541Z,11.75
2022-12-31T01:33:07.535Z,11.72
2022-12-31T01:34:07.533Z,11.74
2022-12-31T01:35:07.602Z,11.78
2022-12-31T01:36:07.507Z,11.82
2022-12-31T01:37:07.490Z,11.82
2022-12-31T01:38:07.478Z,11.77
2022-12-31T01:39:07.545Z,11.85
2022-12-31T01:40:07.503Z,11.80
2022-12-31T01:41:07.551Z,11.82
2022-12-31T01:42:07.514Z,11.83
2022-12-31T01:43:07.494Z,11.85
2022-12-31T01:44:07.453Z,11.83
2022-12-31T01:45:07.485Z,11.83
2022-12-31T01:46:07.550Z,11.86
2022-12-31T01:47:07.436Z,11.86
2022-12-31T01:48:07.400Z,11.89
2022-12-31T01:49:07.372Z,11.83
2022-12-31T01:50:07.348Z,11.86
2022-12-31T01:51:07.408Z,11.87
2022-12-31T01:52:07.322Z,11.86
2022-12-31T01:53:07.285Z,11.89
2022-12-31T01:54:07.335Z,11.90
2022-12-31T01:55:07.293Z,11.97
2022-12-31T01:56:07.343Z,11.99
2022-12-31T01:57:07.315Z,12.01
2022-12-31T01:58:07.287Z,11.99
2022-12-31T01:59:07.255Z,11.96
2022-12-31T02:00:07.248Z,11.93
2022-12-31T02:01:07.268Z,11.89
2022-12-31T02:02:07.452Z,11.86
2022-12-31T02:03:07.253Z,11.86
2022-12-31T02:04:07.247Z,11.87
2022-12-31T02:05:07.165Z,11.85
2022-12-31T02:06:07.167Z,11.82
2022-12-31T02:07:07.230Z,11.83
2022-12-31T02:08:07.300Z,11.83
2022-12-31T02:09:07.186Z,11.83
2022-12-31T02:10:07.170Z,11.80
2022-12-31T02:11:07.150Z,11.72
2022-12-31T02:12:07.124Z,11.71
2022-12-31T02:13:07.155Z,11.68
2022-12-31T02:14:06.962Z,11.68
2022-12-31T02:15:07.057Z,11.64
2022-12-31T02:16:07.138Z,11.64
2022-12-31T02:17:07.054Z,11.57
2022-12-31T02:18:07.159Z,11.62
2022-12-31T02:19:07.117Z,11.54
2022-12-31T02:20:07.082Z,11.54
2022-12-31T02:21:07.044Z,11.56
2022-12-31T02:22:07.087Z,11.53
2022-12-31T02:23:07.138Z,11.52
2022-12-31T02:24:07.092Z,11.47
2022-12-31T02:25:07.056Z,11.47
2022-12-31T02:26:07.009Z,11.53
2022-12-31T02:27:07.048Z,11.47
2022-12-31T02:28:06.925Z,11.49
2022-12-31T02:29:07.035Z,11.47
2022-12-31T02:30:07.083Z,11.49
2022-12-31T02:31:07.006Z,11.54
2022-12-31T02:32:06.964Z,11.54
2022-12-31T02:33:06.939Z,11.54
2022-12-31T02:34:06.987Z,11.57
2022-12-31T02:35:06.961Z,11.62
2022-12-31T02:36:06.931Z,11.65
2022-12-31T02:37:06.895Z,11.62
2022-12-31T02:38:06.923Z,11.68
2022-12-31T02:39:06.874Z,11.64
2022-12-31T02:40:06.919Z,11.68
2022-12-31T02:41:06.817Z,11.70
2022-12-31T02:42:06.847Z,11.72
2022-12-31T02:43:06.821Z,11.72
2022-12-31T02:44:06.792Z,11.77
2022-12-31T02:45:06.844Z,11.82
2022-12-31T02:46:06.835Z,11.80
2022-12-31T02:47:06.786Z,11.77
2022-12-31T02:48:06.750Z,11.78
2022-12-31T02:49:06.595Z,11.83
2022-12-31T02:50:06.738Z,11.77
2022-12-31T02:51:06.724Z,11.85
2022-12-31T02:52:06.707Z,11.85
2022-12-31T02:53:06.680Z,11.89
2022-12-31T02:54:06.767Z,11.85
2022-12-31T02:55:06.733Z,11.89
2022-12-31T02:56:06.694Z,11.86
2022-12-31T02:57:06.685Z,11.86
2022-12-31T02:58:06.658Z,11.83
2022-12-31T02:59:06.623Z,11.85
2022-12-31T03:00:06.608Z,11.83
2022-12-31T03:01:06.785Z,11.85
2022-12-31T03:02:06.787Z,11.86
2022-12-31T03:03:06.687Z,11.90
2022-12-31T03:04:06.680Z,11.93
2022-12-31T03:05:06.527Z,11.97
2022-12-31T03:06:06.751Z,11.99
2022-12-31T03:07:06.656Z,12.04
2022-12-31T03:08:06.651Z,12.04
2022-12-31T03:09:06.715Z,12.09
2022-12-31T03:10:06.612Z,12.13
2022-12-31T03:11:06.594Z,12.12
2022-12-31T03:12:06.579Z,12.21
2022-12-31T03:13:06.567Z,12.29
2022-12-31T03:14:06.619Z,12.31
2022-12-31T03:15:06.519Z,12.30
2022-12-31T03:16:06.560Z,12.42
2022-12-31T03:17:06.489Z,12.42
2022-12-31T03:18:06.557Z,12.45
2022-12-31T03:19:06.540Z,12.45
2022-12-31T03:20:06.528Z,12.52
2022-12-31T03:21:06.524Z,12.49
2022-12-31T03:22:06.513Z,12.48
2022-12-31T03:23:06.569Z,12.54
2022-12-31T03:24:06.468Z,12.64
2022-12-31T03:25:06.465Z,12.71
2022-12-31T03:26:06.418Z,12.77
2022-12-31T03:27:06.404Z,12.71
2022-12-31T03:28:06.394Z,12.75
2022-12-31T03:29:06.446Z,12.79
2022-12-31T03:30:06.423Z,12.81
2022-12-31T03:31:06.456Z,12.82
2022-12-31T03:32:06.387Z,12.88
2022-12-31T03:33:06.437Z,12.93
2022-12-31T03:34:06.439Z,13.00
2022-12-31T03:35:06.338Z,12.92
2022-12-31T03:36:06.312Z,12.93
2022-12-31T03:37:06.301Z,12.93
2022-12-31T03:38:06.285Z,12.92
2022-12-31T03:39:06.350Z,12.95
2022-12-31T03:40:06.257Z,12.97
2022-12-31T03:41:06.319Z,13.03
2022-12-31T03:42:06.296Z,13.02
2022-12-31T03:43:06.365Z,13.06
2022-12-31T03:44:06.347Z,13.04
2022-12-31T03:45:06.284Z,13.04
2022-12-31T03:46:06.309Z,13.00
2022-12-31T03:47:06.142Z,13.07
2022-12-31T03:48:06.216Z,13.14
2022-12-31T03:49:06.275Z,13.11
2022-12-31T03:50:06.169Z,13.14
2022-12-31T03:51:06.167Z,13.14
2022-12-31T03:52:06.148Z,13.18
2022-12-31T03:53:06.125Z,13.17
2022-12-31T03:54:06.300Z,13.21
2022-12-31T03:55:06.152Z,13.24
2022-12-31T03:56:06.147Z,13.22
2022-12-31T03:57:06.140Z,13.22
2022-12-31T03:58:06.087Z,13.29
2022-12-31T03:59:06.054Z,13.24
2022-12-31T04:00:06.125Z,13.25
2022-12-31T04:01:06.158Z,13.25
2022-12-31T04:02:06.183Z,13.22
2022-12-31T04:03:06.272Z,13.22
2022-12-31T04:04:06.035Z,13.27
2022-12-31T04:05:06.015Z,13.33
2022-12-31T04:06:05.999Z,13.30
2022-12-31T04:07:05.992Z,13.29
2022-12-31T04:08:06.058Z,13.33
2022-12-31T04:09:05.976Z,13.32
2022-12-31T04:10:05.977Z,13.38
2022-12-31T04:11:05.953Z,13.38
2022-12-31T04:12:06.029Z,13.46
2022-12-31T04:13:05.947Z,13.46
2022-12-31T04:14:05.940Z,13.41
2022-12-31T04:15:06.007Z,13.43
2022-12-31T04:16:05.922Z,13.41
2022-12-31T04:17:05.882Z,13.44
2022-12-31T04:18:05.875Z,13.47
2022-12-31T04:19:05.948Z,13.46
2022-12-31T04:20:05.864Z,13.51
2022-12-31T04:21:05.863Z,13.49
2022-12-31T04:22:05.852Z,13.49
2022-12-31T04:23:05.853Z,13.47
2022-12-31T04:24:05.867Z,13.52
2022-12-31T04:25:05.772Z,13.54
2022-12-31T04:26:05.764Z,13.58
2022-12-31T04:27:07.967Z,13.54
2022-12-31T04:28:05.759Z,13.56
2022-12-31T04:29:05.815Z,13.56
2022-12-31T04:30:05.737Z,13.52
2022-12-31T04:31:05.741Z,13.54
2022-12-31T04:32:05.754Z,13.54
2022-12-31T04:33:05.678Z,13.55
2022-12-31T04:34:05.568Z,13.55
2022-12-31T04:35:05.700Z,13.55
2022-12-31T04:36:05.879Z,13.51
2022-12-31T04:37:05.701Z,13.58
2022-12-31T04:38:05.625Z,13.54
2022-12-31T04:39:05.635Z,13.61
2022-12-31T04:40:06.860Z,13.63
2022-12-31T04:41:05.665Z,13.70
2022-12-31T04:42:05.526Z,13.63
2022-12-31T04:43:05.707Z,13.63
2022-12-31T04:44:05.568Z,13.62
2022-12-31T04:45:05.577Z,13.62
2022-12-31T04:46:05.618Z,13.58
2022-12-31T04:47:05.611Z,13.55
2022-12-31T04:48:05.477Z,13.61
2022-12-31T04:49:05.464Z,13.56
2022-12-31T04:50:05.568Z,13.56
2022-12-31T04:51:05.551Z,13.54
2022-12-31T04:52:05.527Z,13.59
2022-12-31T04:53:05.528Z,13.59
2022-12-31T04:54:05.527Z,13.61
2022-12-31T04:55:05.404Z,13.61
2022-12-31T04:56:05.392Z,13.63
2022-12-31T04:57:05.377Z,13.61
2022-12-31T04:58:05.484Z,13.59
2022-12-31T04:59:05.370Z,13.54
2022-12-31T05:00:05.345Z,13.54
2022-12-31T05:01:05.512Z,13.54
2022-12-31T05:02:05.644Z,13.51
2022-12-31T05:03:05.537Z,13.52
2022-12-31T05:04:05.370Z,13.47
2022-12-31T05:05:05.287Z,13.44
2022-12-31T05:06:05.355Z,13.40
2022-12-31T05:07:05.337Z,13.36
2022-12-31T05:08:05.456Z,13.30
2022-12-31T05:09:05.252Z,13.33
2022-12-31T05:10:05.261Z,13.32
2022-12-31T05:11:05.276Z,13.33
2022-12-31T05:12:05.217Z,13.25
2022-12-31T05:13:05.312Z,13.25
2022-12-31T05:14:05.239Z,13.21
2022-12-31T05:15:05.248Z,13.18
2022-12-31T05:16:05.169Z,13.21
2022-12-31T05:17:05.182Z,13.15
2022-12-31T05:18:05.175Z,13.18
2022-12-31T05:19:05.249Z,13.17
2022-12-31T05:20:05.158Z,13.07
2022-12-31T05:21:05.156Z,13.12
2022-12-31T05:22:05.152Z,13.09
2022-12-31T05:23:05.228Z,12.99
2022-12-31T05:24:05.148Z,13.02
2022-12-31T05:25:05.144Z,13.00
2022-12-31T05:26:05.223Z,12.97
2022-12-31T05:27:05.136Z,12.93
2022-12-31T05:28:05.141Z,12.88
2022-12-31T05:29:05.068Z,12.96
2022-12-31T05:30:05.094Z,12.95
2022-12-31T05:31:05.142Z,12.97
2022-12-31T05:32:05.121Z,12.97
2022-12-31T05:33:05.059Z,13.00
2022-12-31T05:34:05.013Z,13.06
2022-12-31T05:35:05.034Z,13.15
2022-12-31T05:36:05.060Z,13.20
2022-12-31T05:37:04.995Z,13.24
2022-12-31T05:38:05.087Z,13.25
2022-12-31T05:39:05.013Z,13.32
2022-12-31T05:40:04.873Z,13.25
2022-12-31T05:41:05.033Z,13.30
2022-12-31T05:42:04.956Z,13.29
2022-12-31T05:43:04.967Z,13.30
2022-12-31T05:44:04.898Z,13.22
2022-12-31T05:45:04.989Z,13.25
2022-12-31T05:46:04.961Z,13.22
2022-12-31T05:47:04.925Z,13.22
2022-12-31T05:48:04.915Z,13.21
2022-12-31T05:49:04.911Z,13.18
2022-12-31T05:50:04.964Z,13.17
2022-12-31T05:51:04.903Z,13.24
2022-12-31T05:52:04.748Z,13.24
2022-12-31T05:53:04.765Z,13.21
2022-12-31T05:54:04.785Z,13.18
2022-12-31T05:55:04.813Z,13.18
2022-12-31T05:56:04.834Z,13.15
2022-12-31T05:57:04.833Z,13.12
2022-12-31T05:58:04.851Z,13.15
2022-12-31T05:59:04.737Z,13.14
2022-12-31T06:00:04.749Z,13.12
2022-12-31T06:01:04.714Z,13.14
2022-12-31T06:02:04.749Z,13.15
2022-12-31T06:03:04.778Z,13.11
2022-12-31T06:04:04.767Z,13.07
2022-12-31T06:05:04.686Z,13.07
2022-12-31T06:06:04.682Z,13.12
2022-12-31T06:07:04.673Z,13.06
2022-12-31T06:08:04.785Z,13.09
2022-12-31T06:09:04.592Z,13.07
2022-12-31T06:10:04.588Z,13.18
2022-12-31T06:11:04.603Z,13.21
2022-12-31T06:12:04.626Z,13.24
2022-12-31T06:13:04.571Z,13.21
2022-12-31T06:14:04.669Z,13.21
2022-12-31T06:15:04.522Z,13.27
2022-12-31T06:16:04.675Z,13.27
2022-12-31T06:17:04.558Z,13.24
2022-12-31T06:18:04.651Z,13.25
2022-12-31T06:19:04.572Z,13.27
2022-12-31T06:20:10.511Z,13.36
2022-12-31T06:21:04.569Z,13.36
2022-12-31T06:22:04.496Z,13.36
2022-12-31T06:23:04.496Z,13.41
2022-12-31T06:24:04.577Z,13.46
2022-12-31T06:25:04.586Z,13.52
2022-12-31T06:26:04.453Z,13.58
2022-12-31T06:27:04.462Z,13.62
2022-12-31T06:28:04.544Z,13.65
2022-12-31T06:29:04.474Z,13.63
2022-12-31T06:30:04.482Z,13.65
2022-12-31T06:31:04.467Z,13.69
2022-12-31T06:32:04.409Z,13.71
2022-12-31T06:33:04.427Z,13.73
2022-12-31T06:34:04.375Z,13.73
2022-12-31T06:35:04.462Z,13.81
2022-12-31T06:36:04.213Z,13.79
2022-12-31T06:37:04.334Z,13.83
2022-12-31T06:38:04.339Z,13.80
2022-12-31T06:39:04.344Z,13.81
2022-12-31T06:40:04.358Z,13.87
2022-12-31T06:41:04.358Z,13.88
2022-12-31T06:42:04.275Z,13.81
2022-12-31T06:43:04.295Z,13.88
2022-12-31T06:44:04.457Z,13.89
2022-12-31T06:45:04.315Z,13.91
2022-12-31T06:46:04.238Z,13.92
2022-12-31T06:47:04.153Z,13.91
2022-12-31T06:48:04.150Z,13.91
2022-12-31T06:49:04.140Z,13.94
2022-12-31T06:50:04.136Z,13.99
2022-12-31T06:51:04.278Z,14.02
2022-12-31T06:52:04.112Z,13.98
2022-12-31T06:53:04.134Z,14.04
2022-12-31T06:54:04.133Z,14.02
2022-12-31T06:55:04.140Z,14.04
2022-12-31T06:56:04.139Z,13.98
2022-12-31T06:57:04.160Z,14.01
2022-12-31T06:58:04.166Z,13.98
2022-12-31T06:59:04.143Z,13.98
2022-12-31T07:00:04.128Z,13.98
2022-12-31T07:01:03.988Z,13.98
2022-12-31T07:02:04.170Z,13.94
2022-12-31T07:03:04.108Z,14.02
2022-12-31T07:04:04.052Z,13.99
2022-12-31T07:05:04.024Z,14.04
2022-12-31T07:06:04.017Z,14.02
2022-12-31T07:07:04.027Z,14.01
2022-12-31T07:08:04.019Z,14.09
2022-12-31T07:09:03.889Z,14.07
2022-12-31T07:10:03.994Z,14.09
2022-12-31T07:11:03.899Z,14.07
2022-12-31T07:12:04.032Z,14.16
2022-12-31T07:13:04.038Z,14.19
2022-12-31T07:14:03.926Z,14.14
2022-12-31T07:15:03.874Z,14.16
2022-12-31T07:16:03.914Z,14.21
2022-12-31T07:17:03.896Z,14.19
2022-12-31T07:18:03.834Z,14.25
2022-12-31T07:19:03.928Z,14.21
2022-12-31T07:20:03.781Z,14.28
2022-12-31T07:21:03.798Z,14.28
2022-12-31T07:22:03.826Z,14.29
2022-12-31T07:23:03.816Z,14.34
2022-12-31T07:24:03.908Z,14.35
2022-12-31T07:25:03.834Z,14.38
2022-12-31T07:26:03.774Z,14.37
2022-12-31T07:27:03.766Z,14.37
2022-12-31T07:28:03.757Z,14.42
2022-12-31T07:29:03.768Z,14.46
2022-12-31T07:30:03.872Z,14.47
2022-12-31T07:31:03.927Z,14.44
2022-12-31T07:32:03.746Z,14.43
2022-12-31T07:33:03.753Z,14.46
2022-12-31T07:34:03.676Z,14.50
2022-12-31T07:35:03.681Z,14.50
2022-12-31T07:36:03.782Z,14.50
2022-12-31T07:37:03.667Z,14.46
2022-12-31T07:38:03.654Z,14.46
2022-12-31T07:39:03.738Z,14.46
2022-12-31T07:40:03.667Z,14.47
2022-12-31T07:41:09.508Z,14.47
2022-12-31T07:42:03.677Z,14.46
2022-12-31T07:43:03.607Z,14.43
2022-12-31T07:44:03.575Z,14.44
2022-12-31T07:45:03.651Z,14.46
2022-12-31T07:46:03.654Z,14.44
2022-12-31T07:47:03.550Z,14.46
2022-12-31T07:48:03.557Z,14.39
2022-12-31T07:49:03.556Z,14.49
2022-12-31T07:50:03.560Z,14.44
2022-12-31T07:51:03.631Z,14.44
2022-12-31T07:52:03.623Z,14.46
2022-12-31T07:53:03.620Z,14.46
2022-12-31T07:54:06.433Z,14.52
2022-12-31T07:55:03.492Z,14.50
2022-12-31T07:56:03.473Z,14.54
2022-12-31T07:57:03.546Z,14.61
2022-12-31T07:58:03.513Z,14.60
2022-12-31T07:59:03.464Z,14.64
2022-12-31T08:00:03.476Z,14.64
2022-12-31T08:01:03.566Z,14.69
2022-12-31T08:02:03.500Z,14.65
2022-12-31T08:03:03.520Z,14.68
2022-12-31T08:04:03.384Z,14.74
2022-12-31T08:05:03.405Z,14.74
2022-12-31T08:06:03.417Z,14.74
2022-12-31T08:07:03.262Z,14.74
2022-12-31T08:08:03.425Z,14.78
2022-12-31T08:09:03.269Z,14.81
2022-12-31T08:10:03.292Z,14.83
2022-12-31T08:11:03.273Z,14.81
2022-12-31T08:12:03.267Z,14.78
2022-12-31T08:13:03.266Z,14.80
2022-12-31T08:14:03.160Z,14.75
2022-12-31T08:15:03.134Z,14.75
2022-12-31T08:16:03.181Z,14.75
2022-12-31T08:17:03.225Z,14.74
2022-12-31T08:18:03.226Z,14.72
2022-12-31T08:19:03.085Z,14.75
2022-12-31T08:20:03.080Z,14.72
2022-12-31T08:21:03.241Z,14.74
2022-12-31T08:22:03.153Z,14.80
2022-12-31T08:23:03.015Z,14.71
2022-12-31T08:24:03.285Z,14.74
2022-12-31T08:25:03.173Z,14.78
2022-12-31T08:26:03.112Z,14.83
2022-12-31T08:27:02.987Z,14.74
2022-12-31T08:28:02.921Z,14.80
2022-12-31T08:29:02.975Z,14.80
2022-12-31T08:30:02.891Z,14.81
2022-12-31T08:31:02.961Z,14.78
2022-12-31T08:32:02.952Z,14.81
2022-12-31T08:33:02.901Z,14.80
2022-12-31T08:34:05.998Z,14.78
2022-12-31T08:35:02.891Z,14.84
2022-12-31T08:36:03.132Z,14.78
2022-12-31T08:37:02.867Z,14.81
2022-12-31T08:38:02.830Z,14.84
2022-12-31T08:39:02.934Z,14.81
2022-12-31T08:40:02.829Z,14.87
2022-12-31T08:41:02.999Z,14.84
2022-12-31T08:42:02.832Z,14.91
2022-12-31T08:43:03.013Z,14.86
2022-12-31T08:44:02.783Z,14.87
2022-12-31T08:45:02.767Z,14.88
2022-12-31T08:46:03.065Z,14.90
2022-12-31T08:47:03.025Z,14.88
2022-12-31T08:48:02.944Z,14.93
2022-12-31T08:49:02.969Z,14.91
2022-12-31T08:50:02.964Z,14.93
2022-12-31T08:51:02.895Z,14.91
2022-12-31T08:52:02.953Z,14.95
2022-12-31T08:53:02.869Z,14.91
2022-12-31T08:54:02.854Z,14.91
2022-12-31T08:55:02.856Z,14.93
2022-12-31T08:56:02.848Z,15.02
2022-12-31T08:57:02.918Z,15.02
2022-12-31T08:58:02.835Z,15.06
2022-12-31T08:59:02.829Z,15.03
2022-12-31T09:00:02.810Z,15.06
2022-12-31T09:01:02.891Z,14.99
2022-12-31T09:02:03.004Z,15.03
2022-12-31T09:03:02.755Z,15.06
2022-12-31T09:04:02.833Z,15.09
2022-12-31T09:05:02.803Z,15.08
2022-12-31T09:06:02.753Z,15.12
2022-12-31T09:07:02.859Z,15.11
2022-12-31T09:08:02.590Z,15.13
2022-12-31T09:09:02.737Z,15.11
2022-12-31T09:10:02.749Z,15.13
2022-12-31T09:11:02.688Z,15.09
2022-12-31T09:12:02.708Z,15.12
2022-12-31T09:13:02.491Z,15.17
2022-12-31T09:14:02.778Z,15.21
2022-12-31T09:15:02.760Z,15.21
2022-12-31T09:16:02.545Z,15.21
2022-12-31T09:17:02.543Z,15.17
2022-12-31T09:18:02.542Z,15.13
2022-12-31T09:19:02.550Z,15.13
2022-12-31T09:20:02.517Z,15.17
2022-12-31T09:21:02.551Z,15.15
2022-12-31T09:22:02.488Z,15.13
2022-12-31T09:23:02.492Z,15.21
2022-12-31T09:24:07.588Z,15.20
2022-12-31T09:25:02.383Z,15.17
2022-12-31T09:26:02.583Z,15.20
2022-12-31T09:27:02.648Z,15.26
2022-12-31T09:28:02.544Z,15.31
2022-12-31T09:29:02.356Z,15.31
2022-12-31T09:30:02.288Z,15.36
2022-12-31T09:31:02.305Z,15.46
2022-12-31T09:32:02.421Z,15.46
2022-12-31T09:33:02.298Z,15.51
2022-12-31T09:34:02.385Z,15.57
2022-12-31T09:35:02.380Z,15.63
2022-12-31T09:36:02.558Z,15.67
2022-12-31T09:37:02.525Z,15.67
2022-12-31T09:38:05.295Z,15.70
2022-12-31T09:39:02.347Z,15.75
2022-12-31T09:40:02.337Z,15.70
2022-12-31T09:41:02.317Z,15.81
2022-12-31T09:42:02.295Z,15.76
2022-12-31T09:43:02.440Z,15.84
2022-12-31T09:44:02.274Z,15.86
2022-12-31T09:45:02.264Z,15.85
2022-12-31T09:46:02.501Z,15.84
2022-12-31T09:47:02.456Z,15.79
2022-12-31T09:48:02.280Z,15.81
2022-12-31T09:49:02.272Z,15.76
2022-12-31T09:50:02.274Z,15.81
2022-12-31T09:51:02.280Z,15.74
2022-12-31T09:52:02.275Z,15.76
2022-12-31T09:53:02.256Z,15.76
2022-12-31T09:54:02.242Z,15.76
2022-12-31T09:55:02.235Z,15.79
2022-12-31T09:56:02.229Z,15.78
2022-12-31T09:57:02.036Z,15.81
2022-12-31T09:58:02.221Z,15.84
2022-12-31T09:59:01.991Z,15.84
2022-12-31T10:00:01.967Z,15.86
2022-12-31T10:01:02.320Z,15.85
2022-12-31T10:02:02.371Z,15.84
2022-12-31T10:03:02.215Z,15.86
2022-12-31T10:04:02.095Z,15.86
2022-12-31T10:05:01.947Z,15.82
2022-12-31T10:06:01.926Z,15.81
2022-12-31T10:07:01.941Z,15.82
2022-12-31T10:08:01.938Z,15.82
2022-12-31T10:09:01.928Z,15.82
2022-12-31T10:10:01.900Z,15.81
2022-12-31T10:11:01.891Z,15.81
2022-12-31T10:12:01.892Z,15.81
2022-12-31T10:13:01.849Z,15.75
2022-12-31T10:14:01.850Z,15.76
2022-12-31T10:15:01.871Z,15.81
2022-12-31T10:16:01.801Z,15.79
2022-12-31T10:17:01.865Z,15.85
2022-12-31T10:18:01.815Z,15.82
2022-12-31T10:19:01.841Z,15.85
2022-12-31T10:20:01.846Z,15.84
2022-12-31T10:21:01.735Z,15.82
2022-12-31T10:22:01.806Z,15.81
2022-12-31T10:23:01.749Z,15.79
2022-12-31T10:24:01.777Z,15.79
2022-12-31T10:25:01.716Z,15.78
2022-12-31T10:26:01.746Z,15.78
2022-12-31T10:27:02.163Z,15.75
2022-12-31T10:28:01.990Z,15.70
2022-12-31T10:29:01.911Z,15.78
2022-12-31T10:30:01.848Z,15.79
2022-12-31T10:31:02.024Z,15.75
2022-12-31T10:32:01.853Z,15.78
2022-12-31T10:33:01.825Z,15.82
2022-12-31T10:34:01.853Z,15.81
2022-12-31T10:35:01.788Z,15.81
2022-12-31T10:36:01.873Z,15.72
2022-12-31T10:37:01.807Z,15.72
2022-12-31T10:38:01.679Z,15.74
2022-12-31T10:39:04.982Z,15.70
2022-12-31T10:40:01.741Z,15.68
2022-12-31T10:41:01.744Z,15.64
2022-12-31T10:42:01.626Z,15.61
2022-12-31T10:43:01.704Z,15.54
2022-12-31T10:44:01.693Z,15.52
2022-12-31T10:45:01.682Z,15.52
2022-12-31T10:46:01.756Z,15.46
2022-12-31T10:47:01.780Z,15.49
2022-12-31T10:48:01.699Z,15.46
2022-12-31T10:49:01.638Z,15.49
2022-12-31T10:50:01.637Z,15.52
2022-12-31T10:51:01.644Z,15.54
2022-12-31T10:52:01.736Z,15.66
2022-12-31T10:53:01.644Z,15.68
2022-12-31T10:54:01.640Z,15.72
2022-12-31T10:55:01.629Z,15.67
2022-12-31T10:56:01.633Z,15.64
2022-12-31T10:57:01.613Z,15.64
2022-12-31T10:58:04.308Z,15.57
2022-12-31T10:59:01.637Z,15.59
2022-12-31T11:00:01.695Z,15.60
2022-12-31T11:01:01.754Z,15.63
2022-12-31T11:02:01.617Z,15.59
2022-12-31T11:03:01.610Z,15.68
2022-12-31T11:04:01.541Z,15.70
2022-12-31T11:05:01.537Z,15.74
2022-12-31T11:06:01.550Z,15.74
2022-12-31T11:07:01.413Z,15.78
2022-12-31T11:08:01.401Z,15.75
2022-12-31T11:09:01.508Z,15.76
2022-12-31T11:10:01.406Z,15.79
2022-12-31T11:11:01.391Z,15.81
2022-12-31T11:12:01.394Z,15.76
2022-12-31T11:13:01.398Z,15.75
2022-12-31T11:14:01.391Z,15.72
2022-12-31T11:15:01.512Z,15.70
2022-12-31T11:16:01.424Z,15.63
2022-12-31T11:17:01.314Z,15.60
2022-12-31T11:18:01.314Z,15.56
2022-12-31T11:19:01.324Z,15.51
2022-12-31T11:20:01.467Z,15.48
2022-12-31T11:21:01.279Z,15.43
2022-12-31T11:22:01.140Z,15.42
2022-12-31T11:23:01.106Z,15.43
2022-12-31T11:24:01.155Z,15.42
2022-12-31T11:25:01.275Z,15.41
2022-12-31T11:26:01.356Z,15.36
2022-12-31T11:27:01.079Z,15.35
2022-12-31T11:28:01.137Z,15.35
2022-12-31T11:29:01.053Z,15.31
2022-12-31T11:30:01.168Z,15.28
2022-12-31T11:31:01.306Z,15.28
2022-12-31T11:32:01.185Z,15.30
2022-12-31T11:33:01.199Z,15.31
2022-12-31T11:34:01.214Z,15.36
2022-12-31T11:35:00.989Z,15.42
2022-12-31T11:36:01.244Z,15.49
2022-12-31T11:37:00.963Z,15.51
2022-12-31T11:38:00.975Z,15.56
2022-12-31T11:39:01.153Z,15.56
2022-12-31T11:40:01.155Z,15.61
2022-12-31T11:41:00.921Z,15.63
2022-12-31T11:42:01.236Z,15.72
2022-12-31T11:43:01.169Z,15.74
2022-12-31T11:44:00.907Z,15.76
2022-12-31T11:45:00.861Z,15.70
2022-12-31T11:46:01.074Z,15.72
2022-12-31T11:47:00.876Z,15.76
2022-12-31T11:49:00.914Z,15.76
2022-12-31T11:50:01.061Z,15.78
2022-12-31T11:51:00.985Z,15.86
2022-12-31T11:52:00.882Z,15.96
2022-12-31T11:53:01.124Z,16.07
2022-12-31T11:54:00.967Z,16.16
2022-12-31T11:55:00.763Z,16.31
2022-12-31T11:56:00.797Z,16.55
2022-12-31T11:57:00.854Z,17.08
2022-12-31T11:58:00.811Z,17.33
2022-12-31T11:59:03.628Z,17.44
2022-12-31T12:00:00.817Z,17.53
2022-12-31T12:01:00.996Z,17.55
2022-12-31T12:02:00.715Z,17.48
2022-12-31T12:03:00.945Z,17.30
2022-12-31T12:04:01.030Z,17.10
2022-12-31T12:05:05.056Z,16.93
2022-12-31T12:06:00.827Z,16.90
2022-12-31T12:07:00.976Z,16.95
2022-12-31T12:08:00.681Z,16.90
2022-12-31T12:09:00.871Z,16.81
2022-12-31T12:10:00.688Z,16.75
2022-12-31T12:11:00.748Z,16.74
2022-12-31T12:12:00.773Z,16.74
2022-12-31T12:13:00.678Z,16.75
2022-12-31T12:14:00.623Z,16.74
2022-12-31T12:15:00.743Z,16.73
2022-12-31T12:16:00.662Z,16.68
2022-12-31T12:17:04.636Z,16.65
2022-12-31T12:18:00.692Z,16.62
2022-12-31T12:19:00.796Z,16.60
2022-12-31T12:20:00.681Z,16.65
2022-12-31T12:21:00.712Z,16.63
2022-12-31T12:22:00.640Z,16.63
2022-12-31T12:23:00.519Z,16.58
2022-12-31T12:24:00.512Z,16.58
2022-12-31T12:25:00.696Z,16.58
2022-12-31T12:26:00.547Z,16.53
2022-12-31T12:27:00.527Z,16.58
2022-12-31T12:28:00.452Z,16.55
2022-12-31T12:29:00.525Z,16.60
2022-12-31T12:30:00.449Z,16.59
2022-12-31T12:31:00.583Z,16.59
2022-12-31T12:32:00.484Z,16.59
2022-12-31T12:33:00.406Z,16.58
2022-12-31T12:34:00.408Z,16.55
2022-12-31T12:35:00.529Z,16.56
2022-12-31T12:36:00.365Z,16.56
2022-12-31T12:37:00.595Z,16.52
2022-12-31T12:38:00.531Z,16.45
2022-12-31T12:39:00.557Z,16.48
2022-12-31T12:40:00.503Z,16.44
2022-12-31T12:41:00.525Z,16.48
2022-12-31T12:42:00.372Z,16.41
2022-12-31T12:43:00.533Z,16.42
2022-12-31T12:44:00.516Z,16.38
2022-12-31T12:45:00.311Z,16.34
2022-12-31T12:46:00.471Z,16.31
2022-12-31T12:47:00.463Z,16.30
2022-12-31T12:48:00.446Z,16.33
2022-12-31T12:49:00.461Z,16.30
2022-12-31T12:50:00.420Z,16.30
2022-12-31T12:51:00.441Z,16.31
2022-12-31T12:52:00.207Z,16.31
2022-12-31T12:53:00.408Z,16.27
2022-12-31T12:54:00.434Z,16.23